createdAt,value
2022-08-17T00:02:26.107Z,19.17
2022-08-17T00:05:32.199Z,18.93
2022-08-17T00:08:37.438Z,18.78
2022-08-17T00:11:42.645Z,18.79
2022-08-17T00:15:10.447Z,18.85
2022-08-17T00:19:01.685Z,18.98
2022-08-17T00:22:28.658Z,18.78
2022-08-17T00:25:05.346Z,18.82
2022-08-17T00:28:08.710Z,18.71
2022-08-17T00:31:14.122Z,18.83
2022-08-17T00:34:17.066Z,18.52
2022-08-17T00:37:20.050Z,18.48
2022-08-17T00:40:24.814Z,18.47
2022-08-17T00:43:33.403Z,18.59
2022-08-17T00:46:44.794Z,18.51
2022-08-17T00:49:47.591Z,18.41
2022-08-17T00:52:56.112Z,18.50
2022-08-17T00:56:01.738Z,18.47
2022-08-17T00:59:06.239Z,18.36
2022-08-17T01:02:13.552Z,18.44
2022-08-17T01:05:26.798Z,18.38
2022-08-17T01:08:32.681Z,18.22
2022-08-17T01:11:40.624Z,18.08
2022-08-17T01:14:44.005Z,18.16
2022-08-17T01:17:48.986Z,18.10
2022-08-17T01:20:58.601Z,18.17
2022-08-17T01:24:03.224Z,18.08
2022-08-17T01:27:10.293Z,18.05
2022-08-17T01:30:58.358Z,18.06
2022-08-17T01:33:37.721Z,18.03
2022-08-17T01:36:43.195Z,17.93
2022-08-17T01:39:52.170Z,17.93
2022-08-17T01:42:59.995Z,17.94
2022-08-17T01:46:04.302Z,17.80
2022-08-17T01:49:08.776Z,17.82
2022-08-17T01:52:13.200Z,17.77
2022-08-17T01:55:24.579Z,17.87
2022-08-17T01:58:30.498Z,17.74
2022-08-17T02:01:35.650Z,17.78
2022-08-17T02:04:38.592Z,17.75
2022-08-17T02:07:59.966Z,17.73
2022-08-17T02:11:11.187Z,17.65
2022-08-17T02:14:15.516Z,17.50
2022-08-17T02:17:21.507Z,17.64
2022-08-17T02:20:41.985Z,17.46
2022-08-17T02:23:49.654Z,17.53
2022-08-17T02:26:53.889Z,17.59
2022-08-17T02:29:57.596Z,17.50
2022-08-17T02:33:00.551Z,17.44
2022-08-17T02:36:11.658Z,17.49
2022-08-17T02:39:14.575Z,17.48
2022-08-17T02:42:19.230Z,17.44
2022-08-17T02:45:24.087Z,17.41
2022-08-17T02:48:31.009Z,17.38
2022-08-17T02:51:35.342Z,17.32
2022-08-17T02:54:39.853Z,17.34
2022-08-17T02:57:45.742Z,17.22
2022-08-17T03:00:48.848Z,17.30
2022-08-17T03:03:51.633Z,17.31
2022-08-17T03:06:54.469Z,17.37
2022-08-17T03:09:57.268Z,17.37
2022-08-17T03:13:01.696Z,17.27
2022-08-17T03:16:05.010Z,17.27
2022-08-17T03:19:07.736Z,17.26
2022-08-17T03:22:37.067Z,17.19
2022-08-17T03:25:35.926Z,17.17
2022-08-17T03:28:41.360Z,17.15
2022-08-17T03:31:44.273Z,17.23
2022-08-17T03:34:47.760Z,17.11
2022-08-17T03:38:00.009Z,16.93
2022-08-17T03:41:05.753Z,16.97
2022-08-17T03:44:09.883Z,16.85
2022-08-17T03:47:30.309Z,16.81
2022-08-17T03:50:50.849Z,16.90
2022-08-17T03:54:14.015Z,16.85
2022-08-17T03:57:17.343Z,16.72
2022-08-17T04:00:22.221Z,16.66
2022-08-17T04:03:25.066Z,16.77
2022-08-17T04:06:28.033Z,16.88
2022-08-17T04:09:31.095Z,16.80
2022-08-17T04:12:44.908Z,16.83
2022-08-17T04:15:49.467Z,16.75
2022-08-17T04:18:52.377Z,16.80
2022-08-17T04:21:55.188Z,16.70
2022-08-17T04:24:57.993Z,16.67
2022-08-17T04:28:02.724Z,16.77
2022-08-17T04:31:07.304Z,16.74
2022-08-17T04:34:11.358Z,16.70
2022-08-17T04:37:14.130Z,16.71
2022-08-17T04:40:35.203Z,16.74
2022-08-17T04:43:39.904Z,16.73
2022-08-17T04:46:44.053Z,16.65
2022-08-17T04:49:46.806Z,16.71
2022-08-17T04:52:52.231Z,16.75
2022-08-17T04:55:57.325Z,16.78
2022-08-17T04:59:03.595Z,16.77
2022-08-17T05:02:07.747Z,16.83
2022-08-17T05:05:10.654Z,16.84
2022-08-17T05:08:17.014Z,16.96
2022-08-17T05:11:20.253Z,17.06
2022-08-17T05:14:33.092Z,17.11
2022-08-17T05:17:37.755Z,17.18
2022-08-17T05:20:41.722Z,17.19
2022-08-17T05:23:45.499Z,17.32
2022-08-17T05:26:56.040Z,17.43
2022-08-17T05:29:58.784Z,17.49
2022-08-17T05:33:05.306Z,17.60
2022-08-17T05:36:37.899Z,17.69
2022-08-17T05:39:36.503Z,17.74
2022-08-17T05:42:39.355Z,17.77
2022-08-17T05:45:55.390Z,17.83
2022-08-17T05:49:04.707Z,17.85
2022-08-17T05:52:21.758Z,17.95
2022-08-17T05:55:34.050Z,18.04
2022-08-17T05:58:49.391Z,18.10
2022-08-17T06:01:59.506Z,18.24
2022-08-17T06:05:16.548Z,18.43
2022-08-17T06:08:29.763Z,18.47
2022-08-17T06:11:38.998Z,18.60
2022-08-17T06:14:54.448Z,18.76
2022-08-17T06:18:01.707Z,18.87
2022-08-17T06:21:09.541Z,18.95
2022-08-17T06:24:29.673Z,19.14
2022-08-17T06:27:36.809Z,19.31
2022-08-17T06:30:59.863Z,19.44
2022-08-17T06:34:07.902Z,19.68
2022-08-17T06:37:37.207Z,19.80
2022-08-17T06:40:57.194Z,19.93
2022-08-17T06:44:11.009Z,20.03
2022-08-17T06:47:28.766Z,20.17
2022-08-17T06:50:38.419Z,20.35
2022-08-17T06:53:48.774Z,20.44
2022-08-17T06:56:57.298Z,20.68
2022-08-17T07:00:02.782Z,20.86
2022-08-17T07:03:15.446Z,21.14
2022-08-17T07:06:21.842Z,21.36
2022-08-17T07:09:30.395Z,21.52
2022-08-17T07:12:38.579Z,21.59
2022-08-17T07:15:43.522Z,21.76
2022-08-17T07:18:47.595Z,21.98
2022-08-17T07:21:58.261Z,22.11
2022-08-17T07:25:06.310Z,22.14
2022-08-17T07:28:09.307Z,22.37
2022-08-17T07:31:14.290Z,22.61
2022-08-17T07:34:17.110Z,22.69
2022-08-17T07:37:20.885Z,22.74
2022-08-17T07:40:35.125Z,22.99
2022-08-17T07:43:46.323Z,23.04
2022-08-17T07:47:08.701Z,23.27
2022-08-17T07:50:27.322Z,23.32
2022-08-17T07:53:31.210Z,23.38
2022-08-17T07:56:43.103Z,23.50
2022-08-17T08:00:30.797Z,23.65
2022-08-17T08:03:42.044Z,23.66
2022-08-17T08:06:52.638Z,23.79
2022-08-17T08:10:07.533Z,23.91
2022-08-17T08:13:14.540Z,24.07
2022-08-17T08:16:25.785Z,24.18
2022-08-17T08:19:30.114Z,24.32
2022-08-17T08:22:46.920Z,24.41
2022-08-17T08:25:59.536Z,24.50
2022-08-17T08:29:14.833Z,24.82
2022-08-17T08:32:28.561Z,24.75
2022-08-17T08:35:34.992Z,25.11
2022-08-17T08:38:47.902Z,25.10
2022-08-17T08:42:00.131Z,25.23
2022-08-17T08:45:12.501Z,25.40
2022-08-17T08:48:55.850Z,25.40
2022-08-17T08:51:56.792Z,25.57
2022-08-17T08:55:07.672Z,25.70
2022-08-17T08:58:31.344Z,25.74
2022-08-17T09:01:46.928Z,25.93
2022-08-17T09:05:14.347Z,26.14
2022-08-17T09:08:26.023Z,26.14
2022-08-17T09:12:02.062Z,26.23
2022-08-17T09:15:15.127Z,26.35
2022-08-17T09:18:59.924Z,26.40
2022-08-17T09:21:53.681Z,26.67
2022-08-17T09:25:03.853Z,26.72
2022-08-17T09:28:09.095Z,26.79
2022-08-17T09:31:20.157Z,26.80
2022-08-17T09:34:33.456Z,26.92
2022-08-17T09:37:45.149Z,27.05
2022-08-17T09:40:54.204Z,27.05
2022-08-17T09:44:03.518Z,27.16
2022-08-17T09:47:11.238Z,27.12
2022-08-17T09:51:04.850Z,27.16
2022-08-17T09:53:44.964Z,27.22
2022-08-17T09:57:25.798Z,27.33
2022-08-17T10:00:25.857Z,27.40
2022-08-17T10:03:48.985Z,27.47
2022-08-17T10:07:02.152Z,27.53
2022-08-17T10:10:14.575Z,27.77
2022-08-17T10:13:35.817Z,27.68
2022-08-17T10:16:45.186Z,27.79
2022-08-17T10:19:57.270Z,27.89
2022-08-17T10:23:25.181Z,27.84
2022-08-17T10:26:46.317Z,27.87
2022-08-17T10:30:04.560Z,27.69
2022-08-17T10:33:16.152Z,27.81
2022-08-17T10:36:27.868Z,27.85
2022-08-17T10:39:52.344Z,27.93
2022-08-17T10:43:01.524Z,28.20
2022-08-17T10:46:31.410Z,28.27
2022-08-17T10:49:36.328Z,28.38
2022-08-17T10:52:50.387Z,28.44
2022-08-17T10:56:49.605Z,28.30
2022-08-17T10:59:54.879Z,28.38
2022-08-17T11:02:59.964Z,28.71
2022-08-17T11:06:21.391Z,28.73
2022-08-17T11:09:45.011Z,28.84
2022-08-17T11:12:55.444Z,28.83
2022-08-17T11:16:10.505Z,28.91
2022-08-17T11:19:40.341Z,28.84
2022-08-17T11:23:07.706Z,28.84
2022-08-17T11:26:26.362Z,28.86
2022-08-17T11:29:35.074Z,28.94
2022-08-17T11:32:47.492Z,28.83
2022-08-17T11:35:56.993Z,28.95
2022-08-17T11:39:05.953Z,29.04
2022-08-17T11:42:25.575Z,28.68
2022-08-17T11:45:53.187Z,29.00
2022-08-17T11:49:21.985Z,29.09
2022-08-17T11:52:41.231Z,29.23
2022-08-17T11:56:08.191Z,29.31
2022-08-17T11:59:48.656Z,29.44
2022-08-17T12:03:23.498Z,29.57
2022-08-17T12:06:52.625Z,29.58
2022-08-17T12:09:57.474Z,29.57
2022-08-17T12:13:02.891Z,29.50
2022-08-17T12:16:07.281Z,29.53
2022-08-17T12:19:19.323Z,29.45
2022-08-17T12:22:29.240Z,29.43
2022-08-17T12:25:38.477Z,29.47
2022-08-17T12:28:47.101Z,29.38
2022-08-17T12:31:51.905Z,29.45
2022-08-17T12:34:54.888Z,29.47
2022-08-17T12:38:04.587Z,29.68
2022-08-17T12:41:23.691Z,29.93
2022-08-17T12:44:28.745Z,29.99
2022-08-17T12:47:31.987Z,29.96
2022-08-17T12:50:35.968Z,30.07
2022-08-17T12:53:42.507Z,30.09
2022-08-17T12:56:47.641Z,30.04
2022-08-17T12:59:54.903Z,30.07
2022-08-17T13:03:01.610Z,30.07
2022-08-17T13:06:06.467Z,30.02
2022-08-17T13:09:12.769Z,30.10
2022-08-17T13:12:15.768Z,29.93
2022-08-17T13:15:29.639Z,29.89
2022-08-17T13:18:39.054Z,30.03
2022-08-17T13:21:47.928Z,30.23
2022-08-17T13:24:55.594Z,30.28
2022-08-17T13:27:58.684Z,30.18
2022-08-17T13:31:33.023Z,29.92
2022-08-17T13:35:12.993Z,30.08
2022-08-17T13:38:11.265Z,30.09
2022-08-17T13:41:38.856Z,30.27
2022-08-17T13:44:42.766Z,30.32
2022-08-17T13:47:45.746Z,30.26
2022-08-17T13:51:03.451Z,30.29
2022-08-17T13:54:18.726Z,30.25
2022-08-17T13:57:25.871Z,30.64
2022-08-17T14:00:32.719Z,30.41
2022-08-17T14:03:35.883Z,30.25
2022-08-17T14:06:54.038Z,30.47
2022-08-17T14:10:01.129Z,30.47
2022-08-17T14:13:06.339Z,30.40
2022-08-17T14:16:09.334Z,30.40
2022-08-17T14:19:17.211Z,30.49
2022-08-17T14:22:24.786Z,30.42
2022-08-17T14:25:30.159Z,30.34
2022-08-17T14:28:36.538Z,30.18
2022-08-17T14:31:39.853Z,30.21
2022-08-17T14:34:45.931Z,30.14
2022-08-17T14:37:49.151Z,30.06
2022-08-17T14:40:52.306Z,30.04
2022-08-17T14:43:56.676Z,30.08
2022-08-17T14:46:59.640Z,30.09
2022-08-17T14:50:04.326Z,30.08
2022-08-17T14:53:14.656Z,30.15
2022-08-17T14:56:18.002Z,30.12
2022-08-17T14:59:22.241Z,30.08
2022-08-17T15:02:30.477Z,30.20
2022-08-17T15:05:36.690Z,30.11
2022-08-17T15:08:39.685Z,30.16
2022-08-17T15:11:44.790Z,30.13
2022-08-17T15:14:49.132Z,30.17
2022-08-17T15:17:52.308Z,30.29
2022-08-17T15:20:55.512Z,30.20
2022-08-17T15:23:59.012Z,30.43
2022-08-17T15:27:02.337Z,30.27
2022-08-17T15:30:08.020Z,30.22
2022-08-17T15:33:15.590Z,30.27
2022-08-17T15:36:19.360Z,30.32
2022-08-17T15:39:22.589Z,30.29
2022-08-17T15:42:25.670Z,30.20
2022-08-17T15:45:30.829Z,30.14
2022-08-17T15:48:42.320Z,30.06
2022-08-17T15:51:45.423Z,30.09
2022-08-17T15:54:52.273Z,30.14
2022-08-17T15:57:55.254Z,30.06
2022-08-17T16:01:14.966Z,30.04
2022-08-17T16:04:30.054Z,29.92
2022-08-17T16:07:34.637Z,29.92
2022-08-17T16:10:37.894Z,29.89
2022-08-17T16:13:41.653Z,29.84
2022-08-17T16:16:47.237Z,29.80
2022-08-17T16:19:52.217Z,29.75
2022-08-17T16:22:55.732Z,29.73
2022-08-17T16:25:58.664Z,29.72
2022-08-17T16:29:06.947Z,29.68
2022-08-17T16:32:14.577Z,29.63
2022-08-17T16:35:18.277Z,29.60
2022-08-17T16:38:22.275Z,29.53
2022-08-17T16:41:42.864Z,29.49
2022-08-17T16:44:46.026Z,29.47
2022-08-17T16:47:50.702Z,29.38
2022-08-17T16:51:03.549Z,29.35
2022-08-17T16:54:08.585Z,29.30
2022-08-17T16:57:11.739Z,29.22
2022-08-17T17:00:17.681Z,29.12
2022-08-17T17:03:25.939Z,29.06
2022-08-17T17:06:41.236Z,29.01
2022-08-17T17:09:48.569Z,28.89
2022-08-17T17:13:03.310Z,28.86
2022-08-17T17:16:18.075Z,28.80
2022-08-17T17:19:34.242Z,28.77
2022-08-17T17:22:48.110Z,28.71
2022-08-17T17:25:59.337Z,28.57
2022-08-17T17:29:25.961Z,28.42
2022-08-17T17:32:38.128Z,28.23
2022-08-17T17:35:49.082Z,28.14
2022-08-17T17:38:55.281Z,28.04
2022-08-17T17:42:00.147Z,27.98
2022-08-17T17:45:09.231Z,28.00
2022-08-17T17:48:12.216Z,28.00
2022-08-17T17:52:09.555Z,27.84
2022-08-17T17:55:06.134Z,27.70
2022-08-17T17:58:37.862Z,27.60
2022-08-17T18:01:52.059Z,27.52
2022-08-17T18:05:06.409Z,27.46
2022-08-17T18:08:33.980Z,27.46
2022-08-17T18:11:51.702Z,27.36
2022-08-17T18:15:12.183Z,27.21
2022-08-17T18:18:37.549Z,27.14
2022-08-17T18:21:44.431Z,27.00
2022-08-17T18:24:55.821Z,26.89
2022-08-17T18:27:58.645Z,26.87
2022-08-17T18:31:11.748Z,26.76
2022-08-17T18:34:46.007Z,26.73
2022-08-17T18:37:49.954Z,26.63
2022-08-17T18:41:07.934Z,26.52
2022-08-17T18:44:24.794Z,26.40
2022-08-17T18:47:29.626Z,26.37
2022-08-17T18:50:39.603Z,26.31
2022-08-17T18:53:42.831Z,26.27
2022-08-17T18:56:51.103Z,26.27
2022-08-17T18:59:54.271Z,26.21
2022-08-17T19:03:00.997Z,26.20
2022-08-17T19:06:18.976Z,26.24
2022-08-17T19:09:36.903Z,26.24
2022-08-17T19:12:46.574Z,26.26
2022-08-17T19:16:14.359Z,26.17
2022-08-17T19:19:23.334Z,26.16
2022-08-17T19:22:31.259Z,26.09
2022-08-17T19:25:39.956Z,25.92
2022-08-17T19:28:48.682Z,25.86
2022-08-17T19:31:52.982Z,25.64
2022-08-17T19:34:56.867Z,25.54
2022-08-17T19:38:06.131Z,25.47
2022-08-17T19:41:23.303Z,25.39
2022-08-17T19:44:49.867Z,25.32
2022-08-17T19:48:03.269Z,24.95
2022-08-17T19:51:11.336Z,24.79
2022-08-17T19:54:24.784Z,24.61
2022-08-17T19:57:42.702Z,24.50
2022-08-17T20:00:51.479Z,24.56
2022-08-17T20:03:59.043Z,24.19
2022-08-17T20:07:05.513Z,24.13
2022-08-17T20:10:13.039Z,23.91
2022-08-17T20:13:19.571Z,23.85
2022-08-17T20:16:37.883Z,23.87
2022-08-17T20:19:51.991Z,23.58
2022-08-17T20:23:01.967Z,23.10
2022-08-17T20:26:18.516Z,23.07
2022-08-17T20:29:37.162Z,23.03
2022-08-17T20:32:55.336Z,22.93
2022-08-17T20:36:05.792Z,23.20
2022-08-17T20:39:31.288Z,22.98
2022-08-17T20:42:37.741Z,22.76
2022-08-17T20:45:53.775Z,22.69
2022-08-17T20:49:01.019Z,22.63
2022-08-17T20:52:08.700Z,22.74
2022-08-17T20:55:52.350Z,22.77
2022-08-17T20:58:55.655Z,22.80
2022-08-17T21:02:19.040Z,22.78
2022-08-17T21:05:34.422Z,22.73
2022-08-17T21:08:45.682Z,22.73
2022-08-17T21:12:05.450Z,22.74
2022-08-17T21:15:21.178Z,22.29
2022-08-17T21:18:32.361Z,22.35
2022-08-17T21:21:46.693Z,22.23
2022-08-17T21:24:56.991Z,22.30
2022-08-17T21:28:07.645Z,22.35
2022-08-17T21:31:34.233Z,22.26
2022-08-17T21:34:39.208Z,22.36
2022-08-17T21:37:45.303Z,22.23
2022-08-17T21:40:51.111Z,22.03
2022-08-17T21:43:56.511Z,22.07
2022-08-17T21:47:14.294Z,22.02
2022-08-17T21:50:20.826Z,21.92
2022-08-17T21:53:33.000Z,21.87
2022-08-17T21:56:39.780Z,21.91
2022-08-17T21:59:44.259Z,21.82
2022-08-17T22:02:56.921Z,21.82
2022-08-17T22:05:59.667Z,21.88
2022-08-17T22:09:20.338Z,21.86
2022-08-17T22:12:24.824Z,21.70
2022-08-17T22:15:31.555Z,21.61
2022-08-17T22:18:34.729Z,21.52
2022-08-17T22:21:37.510Z,21.50
2022-08-17T22:24:41.828Z,21.48
2022-08-17T22:27:47.924Z,21.41
2022-08-17T22:31:02.326Z,21.22
2022-08-17T22:34:19.280Z,21.20
2022-08-17T22:37:29.864Z,21.06
2022-08-17T22:40:35.393Z,21.04
2022-08-17T22:43:39.167Z,21.15
2022-08-17T22:46:57.140Z,21.18
2022-08-17T22:50:02.859Z,21.01
2022-08-17T22:53:34.510Z,21.21
2022-08-17T22:56:57.484Z,21.15
2022-08-17T23:00:02.688Z,21.26
2022-08-17T23:03:13.766Z,21.31
2022-08-17T23:06:16.976Z,21.40
2022-08-17T23:09:19.760Z,21.40
2022-08-17T23:12:27.590Z,21.45
2022-08-17T23:15:32.896Z,21.38
2022-08-17T23:18:36.372Z,21.48
2022-08-17T23:21:39.402Z,21.15
2022-08-17T23:24:48.955Z,21.01
2022-08-17T23:27:53.360Z,20.93
2022-08-17T23:30:56.462Z,21.04
2022-08-17T23:33:59.700Z,20.79
2022-08-17T23:37:04.289Z,20.64
2022-08-17T23:40:08.583Z,20.60
2022-08-17T23:43:24.262Z,20.40
2022-08-17T23:46:28.650Z,20.29
2022-08-17T23:49:32.148Z,20.52
2022-08-17T23:52:37.785Z,20.48
2022-08-17T23:55:40.592Z,20.38
2022-08-17T23:58:45.829Z,20.57
